createdAt,value
2023-01-21T00:01:21.345Z,-0.30
2023-01-21T00:03:49.792Z,-0.30
2023-01-21T00:06:19.621Z,-0.30
2023-01-21T00:08:47.815Z,-0.30
2023-01-21T00:11:17.189Z,-0.30
2023-01-21T00:13:46.293Z,-0.30
2023-01-21T00:16:15.231Z,-0.20
2023-01-21T00:18:43.870Z,-0.20
2023-01-21T00:21:12.074Z,-0.20
2023-01-21T00:23:41.847Z,-0.20
2023-01-21T00:26:12.911Z,-0.10
2023-01-21T00:28:43.744Z,-0.20
2023-01-21T00:31:13.580Z,-0.30
2023-01-21T00:33:41.854Z,-0.20
2023-01-21T00:36:13.216Z,-0.10
2023-01-21T00:38:42.792Z,-0.20
2023-01-21T00:41:14.324Z,-0.20
2023-01-21T00:43:43.402Z,-0.40
2023-01-21T00:46:12.880Z,-0.30
2023-01-21T00:48:41.383Z,-0.40
2023-01-21T00:51:10.911Z,-0.40
2023-01-21T00:53:42.823Z,-0.40
2023-01-21T00:56:14.115Z,-0.30
2023-01-21T00:58:44.308Z,-0.40
2023-01-21T01:01:15.924Z,-0.40
2023-01-21T01:03:44.868Z,-0.50
2023-01-21T01:06:16.594Z,-0.50
2023-01-21T01:08:48.118Z,-0.40
2023-01-21T01:11:18.650Z,-0.40
2023-01-21T01:13:46.815Z,-0.40
2023-01-21T01:16:16.566Z,-0.50
2023-01-21T01:18:45.101Z,-0.50
2023-01-21T01:21:16.331Z,-0.50
2023-01-21T01:23:47.137Z,-0.50
2023-01-21T01:26:18.312Z,-0.60
2023-01-21T01:28:47.366Z,-0.60
2023-01-21T01:31:19.028Z,-0.60
2023-01-21T01:33:48.242Z,-0.70
2023-01-21T01:36:20.031Z,-0.60
2023-01-21T01:38:49.554Z,-0.60
2023-01-21T01:41:21.334Z,-0.60
2023-01-21T01:44:00.279Z,-0.60
2023-01-21T01:46:32.024Z,-0.60
2023-01-21T01:49:09.496Z,-0.60
2023-01-21T01:51:48.523Z,-0.60
2023-01-21T01:54:24.413Z,-0.50
2023-01-21T01:56:59.245Z,-0.50
2023-01-21T01:59:28.938Z,-0.50
2023-01-21T02:01:58.578Z,-0.60
2023-01-21T02:04:35.518Z,-0.60
2023-01-21T02:07:04.929Z,-0.60
2023-01-21T02:09:34.488Z,-0.40
2023-01-21T02:12:06.234Z,-0.50
2023-01-21T02:14:42.895Z,-0.40
2023-01-21T02:17:39.828Z,-0.40
2023-01-21T02:20:46.049Z,-0.50
2023-01-21T02:23:27.012Z,-0.40
2023-01-21T02:26:50.743Z,-0.50
2023-01-21T02:29:57.437Z,-0.50
2023-01-21T02:33:23.825Z,-0.40
2023-01-21T02:36:05.630Z,-0.30
2023-01-21T02:38:43.926Z,-0.40
2023-01-21T02:41:27.553Z,-0.30
2023-01-21T02:44:08.394Z,-0.30
2023-01-21T02:46:45.796Z,-0.40
2023-01-21T02:49:25.584Z,-0.30
2023-01-21T02:51:53.785Z,-0.40
2023-01-21T02:55:01.444Z,-0.40
2023-01-21T02:57:41.240Z,-0.40
2023-01-21T03:00:19.221Z,-0.40
2023-01-21T03:03:32.711Z,-0.30
2023-01-21T03:06:38.079Z,-0.30
2023-01-21T03:09:20.878Z,-0.30
2023-01-21T03:12:16.115Z,-0.30
2023-01-21T03:15:13.725Z,-0.30
2023-01-21T03:17:47.294Z,-0.30
2023-01-21T03:20:24.214Z,-0.40
2023-01-21T03:23:00.422Z,-0.40
2023-01-21T03:25:32.867Z,-0.40
2023-01-21T03:28:07.403Z,-0.30
2023-01-21T03:30:41.331Z,-0.30
2023-01-21T03:33:13.871Z,-0.30
2023-01-21T03:35:46.527Z,-0.30
2023-01-21T03:38:22.770Z,-0.20
2023-01-21T03:40:58.524Z,-0.20
2023-01-21T03:43:27.041Z,-0.20
2023-01-21T03:46:05.098Z,-0.20
2023-01-21T03:48:46.732Z,-0.20
2023-01-21T03:51:22.722Z,-0.20
2023-01-21T03:53:58.038Z,-0.20
2023-01-21T03:56:27.514Z,-0.20
2023-01-21T03:58:56.699Z,-0.20
2023-01-21T04:01:24.929Z,-0.20
2023-01-21T04:03:53.046Z,-0.20
2023-01-21T04:06:24.073Z,-0.20
2023-01-21T04:08:53.849Z,-0.10
2023-01-21T04:11:22.027Z,-0.20
2023-01-21T04:13:50.177Z,-0.20
2023-01-21T04:16:18.338Z,-0.20
2023-01-21T04:18:47.570Z,-0.10
2023-01-21T04:21:16.144Z,-0.20
2023-01-21T04:23:44.422Z,-0.10
2023-01-21T04:26:14.038Z,-0.10
2023-01-21T04:28:42.231Z,0.10
2023-01-21T04:31:10.603Z,0.10
2023-01-21T04:33:39.286Z,0.10
2023-01-21T04:36:07.884Z,0.00
2023-01-21T04:38:36.066Z,0.10
2023-01-21T04:41:04.235Z,0.10
2023-01-21T04:43:33.822Z,0.10
2023-01-21T04:46:02.026Z,0.10
2023-01-21T04:48:30.382Z,0.20
2023-01-21T04:50:58.907Z,0.20
2023-01-21T04:53:27.135Z,0.30
2023-01-21T04:55:55.655Z,0.20
2023-01-21T04:58:23.813Z,0.30
2023-01-21T05:00:55.527Z,0.30
2023-01-21T05:03:23.992Z,0.30
2023-01-21T05:05:52.171Z,0.20
2023-01-21T05:08:20.298Z,0.30
2023-01-21T05:10:48.619Z,0.30
2023-01-21T05:13:16.805Z,0.30
2023-01-21T05:15:45.003Z,0.30
2023-01-21T05:18:14.577Z,0.30
2023-01-21T05:20:42.783Z,0.30
2023-01-21T05:23:10.902Z,0.20
2023-01-21T05:25:39.041Z,0.20
2023-01-21T05:28:07.188Z,0.20
2023-01-21T05:30:35.455Z,0.30
2023-01-21T05:33:03.658Z,0.20
2023-01-21T05:35:36.262Z,0.20
2023-01-21T05:38:04.522Z,0.30
2023-01-21T05:40:33.146Z,0.30
2023-01-21T05:43:01.351Z,0.40
2023-01-21T05:45:29.482Z,0.30
2023-01-21T05:47:57.675Z,0.30
2023-01-21T05:50:25.885Z,0.30
2023-01-21T05:52:55.471Z,0.30
2023-01-21T05:55:23.669Z,0.40
2023-01-21T05:57:51.802Z,0.30
2023-01-21T06:00:21.079Z,0.20
2023-01-21T06:02:49.235Z,0.30
2023-01-21T06:05:17.643Z,0.30
2023-01-21T06:07:45.867Z,0.20
2023-01-21T06:10:15.983Z,0.30
2023-01-21T06:12:44.275Z,0.10
2023-01-21T06:15:13.853Z,0.20
2023-01-21T06:17:42.149Z,0.10
2023-01-21T06:20:12.197Z,0.10
2023-01-21T06:22:40.414Z,0.10
2023-01-21T06:25:09.268Z,0.20
2023-01-21T06:27:39.429Z,0.10
2023-01-21T06:30:10.552Z,0.10
2023-01-21T06:32:39.005Z,0.00
2023-01-21T06:35:07.891Z,0.00
2023-01-21T06:37:36.285Z,0.00
2023-01-21T06:40:04.857Z,-0.10
2023-01-21T06:42:33.011Z,0.00
2023-01-21T06:45:02.578Z,0.10
2023-01-21T06:47:30.892Z,0.00
2023-01-21T06:49:59.267Z,0.00
2023-01-21T06:52:27.564Z,-0.10
2023-01-21T06:54:55.780Z,-0.10
2023-01-21T06:57:24.810Z,-0.20
2023-01-21T06:59:53.271Z,-0.20
2023-01-21T07:02:22.997Z,-0.20
2023-01-21T07:04:51.422Z,-0.20
2023-01-21T07:07:19.836Z,-0.20
2023-01-21T07:09:48.044Z,-0.20
2023-01-21T07:12:16.261Z,-0.20
2023-01-21T07:14:44.583Z,-0.20
2023-01-21T07:17:13.408Z,-0.20
2023-01-21T07:19:42.990Z,-0.20
2023-01-21T07:22:11.193Z,-0.20
2023-01-21T07:24:39.510Z,-0.20
2023-01-21T07:27:07.696Z,-0.20
2023-01-21T07:29:35.856Z,-0.10
2023-01-21T07:32:04.197Z,-0.10
2023-01-21T07:34:32.435Z,-0.10
2023-01-21T07:37:01.901Z,-0.20
2023-01-21T07:39:30.277Z,-0.10
2023-01-21T07:41:58.394Z,0.00
2023-01-21T07:44:26.574Z,0.00
2023-01-21T07:46:54.756Z,0.10
2023-01-21T07:49:23.028Z,0.00
2023-01-21T07:51:51.300Z,0.00
2023-01-21T07:54:20.811Z,0.00
2023-01-21T07:56:49.111Z,0.10
2023-01-21T07:59:17.263Z,0.00
2023-01-21T08:01:45.545Z,0.10
2023-01-21T08:04:13.802Z,0.00
2023-01-21T08:06:42.139Z,0.00
2023-01-21T08:09:11.006Z,0.10
2023-01-21T08:11:40.569Z,0.10
2023-01-21T08:14:08.803Z,0.10
2023-01-21T08:16:37.000Z,0.20
2023-01-21T08:19:05.332Z,0.20
2023-01-21T08:21:33.578Z,0.10
2023-01-21T08:24:01.781Z,0.10
2023-01-21T08:26:30.006Z,0.10
2023-01-21T08:28:59.538Z,0.10
2023-01-21T08:31:27.746Z,0.10
2023-01-21T08:33:57.804Z,0.20
2023-01-21T08:36:26.574Z,0.20
2023-01-21T08:38:55.360Z,0.20
2023-01-21T08:41:23.871Z,0.20
2023-01-21T08:43:52.228Z,0.20
2023-01-21T08:46:21.797Z,0.20
2023-01-21T08:48:50.938Z,0.30
2023-01-21T08:51:19.291Z,0.40
2023-01-21T08:53:50.943Z,0.40
2023-01-21T08:56:20.180Z,0.30
2023-01-21T08:58:48.403Z,0.40
2023-01-21T09:01:16.967Z,0.50
2023-01-21T09:03:46.530Z,0.40
2023-01-21T09:06:14.805Z,0.40
2023-01-21T09:08:42.983Z,0.40
2023-01-21T09:11:11.254Z,0.40
2023-01-21T09:13:40.845Z,0.40
2023-01-21T09:16:11.169Z,0.40
2023-01-21T09:18:39.836Z,0.50
2023-01-21T09:21:11.752Z,0.50
2023-01-21T09:23:41.740Z,0.50
2023-01-21T09:26:15.235Z,0.60
2023-01-21T09:28:45.952Z,0.60
2023-01-21T09:31:20.544Z,0.60
2023-01-21T09:33:52.258Z,0.70
2023-01-21T09:36:25.033Z,0.80
2023-01-21T09:38:54.131Z,0.70
2023-01-21T09:41:29.977Z,0.80
2023-01-21T09:44:12.562Z,0.90
2023-01-21T09:46:50.412Z,0.90
2023-01-21T09:49:24.995Z,0.90
2023-01-21T09:52:07.410Z,1.10
2023-01-21T09:54:38.906Z,1.10
2023-01-21T09:57:37.658Z,1.10
2023-01-21T10:00:34.670Z,1.10
2023-01-21T10:03:23.670Z,1.10
2023-01-21T10:06:26.559Z,1.20
2023-01-21T10:09:24.159Z,1.30
2023-01-21T10:12:11.184Z,1.40
2023-01-21T10:15:08.341Z,1.40
2023-01-21T10:17:55.160Z,1.50
2023-01-21T10:20:29.910Z,1.40
2023-01-21T10:23:07.201Z,1.50
2023-01-21T10:25:39.623Z,1.60
2023-01-21T10:28:17.694Z,1.50
2023-01-21T10:30:51.308Z,1.60
2023-01-21T10:33:23.915Z,1.60
2023-01-21T10:36:45.349Z,1.60
2023-01-21T10:39:29.892Z,1.50
2023-01-21T10:42:32.607Z,1.70
2023-01-21T10:45:11.593Z,1.80
2023-01-21T10:47:51.784Z,1.60
2023-01-21T10:50:44.882Z,1.60
2023-01-21T10:53:25.793Z,1.70
2023-01-21T10:56:12.621Z,1.60
2023-01-21T10:58:49.877Z,1.70
2023-01-21T11:01:24.740Z,1.80
2023-01-21T11:03:56.237Z,1.80
2023-01-21T11:06:26.180Z,1.80
2023-01-21T11:09:00.888Z,1.80
2023-01-21T11:11:32.334Z,2.00
2023-01-21T11:14:02.259Z,1.90
2023-01-21T11:16:43.021Z,1.90
2023-01-21T11:19:16.740Z,1.90
2023-01-21T11:22:01.425Z,1.90
2023-01-21T11:24:32.066Z,1.90
2023-01-21T11:27:02.443Z,1.80
2023-01-21T11:29:42.450Z,1.80
2023-01-21T11:32:21.054Z,1.80
2023-01-21T11:34:52.347Z,1.90
2023-01-21T11:37:26.451Z,2.10
2023-01-21T11:39:59.106Z,2.10
2023-01-21T11:42:27.592Z,2.20
2023-01-21T11:45:01.310Z,2.10
2023-01-21T11:47:36.344Z,2.10
2023-01-21T11:50:17.661Z,2.10
2023-01-21T11:52:46.363Z,2.20
2023-01-21T11:55:24.571Z,2.20
2023-01-21T11:57:56.156Z,2.20
2023-01-21T12:00:28.176Z,2.20
2023-01-21T12:03:02.707Z,2.30
2023-01-21T12:05:35.323Z,2.30
2023-01-21T12:08:06.923Z,2.30
2023-01-21T12:10:43.531Z,2.30
2023-01-21T12:13:29.082Z,2.20
2023-01-21T12:16:36.349Z,2.30
2023-01-21T12:19:43.922Z,2.20
2023-01-21T12:22:33.482Z,2.30
2023-01-21T12:25:27.478Z,2.20
2023-01-21T12:28:18.677Z,2.20
2023-01-21T12:31:00.020Z,2.20
2023-01-21T12:33:49.146Z,2.20
2023-01-21T12:36:25.799Z,2.20
2023-01-21T12:39:22.562Z,2.20
2023-01-21T12:42:03.589Z,2.20
2023-01-21T12:44:38.924Z,2.30
2023-01-21T12:47:22.533Z,2.30
2023-01-21T12:50:07.033Z,2.30
2023-01-21T12:52:50.301Z,2.30
2023-01-21T12:55:25.302Z,2.30
2023-01-21T12:58:03.694Z,2.30
2023-01-21T13:00:37.433Z,2.20
2023-01-21T13:03:22.192Z,2.20
2023-01-21T13:06:01.100Z,2.10
2023-01-21T13:08:48.483Z,2.10
2023-01-21T13:11:22.833Z,2.10
2023-01-21T13:14:20.921Z,2.10
2023-01-21T13:16:58.628Z,2.00
2023-01-21T13:19:27.008Z,2.00
2023-01-21T13:22:08.897Z,1.80
2023-01-21T13:25:03.540Z,1.80
2023-01-21T13:27:48.657Z,1.70
2023-01-21T13:30:30.214Z,1.80
2023-01-21T13:33:26.621Z,1.80
2023-01-21T13:36:14.159Z,1.70
2023-01-21T13:38:57.531Z,1.80
2023-01-21T13:41:46.288Z,1.70
2023-01-21T13:44:55.605Z,1.70
2023-01-21T13:47:47.837Z,1.60
2023-01-21T13:50:52.175Z,1.40
2023-01-21T13:53:55.082Z,1.40
2023-01-21T13:56:49.843Z,1.40
2023-01-21T13:59:27.743Z,1.30
2023-01-21T14:02:04.278Z,1.10
2023-01-21T14:04:42.914Z,1.40
2023-01-21T14:07:20.180Z,1.20
2023-01-21T14:09:54.376Z,1.20
2023-01-21T14:12:42.350Z,1.20
2023-01-21T14:15:37.254Z,1.20
2023-01-21T14:18:25.078Z,1.20
2023-01-21T14:21:23.941Z,1.20
2023-01-21T14:24:16.897Z,1.20
2023-01-21T14:27:07.632Z,1.10
2023-01-21T14:29:45.144Z,1.00
2023-01-21T14:32:20.320Z,1.10
2023-01-21T14:35:08.379Z,1.10
2023-01-21T14:37:51.429Z,1.10
2023-01-21T14:40:28.326Z,1.10
2023-01-21T14:42:59.059Z,1.10
2023-01-21T14:45:54.098Z,1.10
2023-01-21T14:48:32.850Z,1.00
2023-01-21T14:51:22.917Z,1.20
2023-01-21T14:53:57.926Z,1.10
2023-01-21T14:56:29.684Z,1.10
2023-01-21T14:59:02.315Z,1.00
2023-01-21T15:01:38.192Z,1.00
2023-01-21T15:04:20.687Z,1.00
2023-01-21T15:06:54.127Z,1.00
2023-01-21T15:09:30.127Z,1.00
2023-01-21T15:12:03.295Z,0.90
2023-01-21T15:14:37.433Z,1.00
2023-01-21T15:17:06.942Z,1.10
2023-01-21T15:19:36.837Z,1.00
2023-01-21T15:22:24.180Z,1.00
2023-01-21T15:25:34.188Z,1.10
2023-01-21T15:28:44.222Z,0.90
2023-01-21T15:31:44.625Z,0.90
2023-01-21T15:34:22.686Z,1.00
2023-01-21T15:36:57.925Z,1.00
2023-01-21T15:39:34.426Z,1.00
2023-01-21T15:42:19.707Z,1.00
2023-01-21T15:45:06.448Z,1.00
2023-01-21T15:48:10.604Z,1.00
2023-01-21T15:50:46.740Z,1.00
2023-01-21T15:53:52.787Z,1.00
2023-01-21T15:56:49.957Z,1.00
2023-01-21T15:59:38.830Z,1.00
2023-01-21T16:02:21.393Z,0.90
2023-01-21T16:05:19.344Z,1.00
2023-01-21T16:08:05.566Z,0.90
2023-01-21T16:10:48.015Z,1.00
2023-01-21T16:13:27.346Z,1.00
2023-01-21T16:16:17.509Z,1.10
2023-01-21T16:18:58.202Z,1.00
2023-01-21T16:21:34.347Z,1.00
2023-01-21T16:24:08.122Z,1.00
2023-01-21T16:26:36.551Z,1.00
2023-01-21T16:29:13.096Z,1.00
2023-01-21T16:31:50.255Z,1.10
2023-01-21T16:34:39.685Z,1.10
2023-01-21T16:37:13.038Z,1.00
2023-01-21T16:39:42.070Z,1.00
2023-01-21T16:42:27.391Z,1.00
2023-01-21T16:44:55.675Z,1.00
2023-01-21T16:47:27.266Z,1.00
2023-01-21T16:49:55.633Z,1.00
2023-01-21T16:52:25.580Z,1.00
2023-01-21T16:54:56.210Z,0.90
2023-01-21T16:57:31.644Z,0.90
2023-01-21T17:00:02.520Z,0.90
2023-01-21T17:02:34.540Z,0.90
2023-01-21T17:05:05.968Z,0.90
2023-01-21T17:07:44.700Z,1.00
2023-01-21T17:10:22.917Z,0.90
2023-01-21T17:12:56.854Z,0.90
2023-01-21T17:15:33.343Z,1.00
2023-01-21T17:18:02.405Z,1.00
2023-01-21T17:20:40.004Z,0.90
2023-01-21T17:23:17.202Z,1.00
2023-01-21T17:25:53.261Z,1.00
2023-01-21T17:28:33.483Z,1.00
2023-01-21T17:31:27.903Z,1.10
2023-01-21T17:34:18.080Z,1.00
2023-01-21T17:36:50.316Z,1.00
2023-01-21T17:40:01.214Z,1.00
2023-01-21T17:42:41.036Z,1.10
2023-01-21T17:45:22.846Z,1.00
2023-01-21T17:48:08.709Z,1.00
2023-01-21T17:50:38.187Z,1.10
2023-01-21T17:53:15.376Z,1.10
2023-01-21T17:55:59.610Z,1.10
2023-01-21T17:58:52.582Z,1.10
2023-01-21T18:01:22.341Z,1.10
2023-01-21T18:03:50.742Z,1.20
2023-01-21T18:06:25.424Z,1.20
2023-01-21T18:08:54.148Z,1.10
2023-01-21T18:11:24.754Z,1.20
2023-01-21T18:13:53.236Z,1.20
2023-01-21T18:16:21.454Z,1.20
2023-01-21T18:18:50.474Z,1.20
2023-01-21T18:21:21.445Z,1.20
2023-01-21T18:23:50.542Z,1.10
2023-01-21T18:26:28.853Z,1.10
2023-01-21T18:28:57.500Z,1.10
2023-01-21T18:31:26.057Z,1.20
2023-01-21T18:33:54.412Z,1.30
2023-01-21T18:36:22.630Z,1.20
2023-01-21T18:38:50.837Z,1.20
2023-01-21T18:41:18.961Z,1.20
2023-01-21T18:43:48.525Z,1.20
2023-01-21T18:46:19.589Z,1.20
2023-01-21T18:48:47.853Z,1.10
2023-01-21T18:51:16.122Z,1.10
2023-01-21T18:53:44.540Z,1.20
2023-01-21T18:56:15.463Z,1.10
2023-01-21T18:58:44.108Z,1.00
2023-01-21T19:01:23.020Z,1.20
2023-01-21T19:03:54.970Z,1.20
2023-01-21T19:06:26.301Z,1.20
2023-01-21T19:08:55.168Z,1.20
2023-01-21T19:11:23.630Z,1.20
2023-01-21T19:13:52.053Z,1.20
2023-01-21T19:16:22.999Z,1.20
2023-01-21T19:18:51.545Z,1.30
2023-01-21T19:21:20.052Z,1.30
2023-01-21T19:23:48.287Z,1.30
2023-01-21T19:26:17.681Z,1.20
2023-01-21T19:28:46.080Z,1.20
2023-01-21T19:31:14.366Z,1.20
2023-01-21T19:33:45.537Z,1.20
2023-01-21T19:36:17.900Z,1.30
2023-01-21T19:38:54.665Z,1.20
2023-01-21T19:41:23.152Z,1.20
2023-01-21T19:43:51.814Z,1.10
2023-01-21T19:46:23.020Z,1.20
2023-01-21T19:48:53.645Z,1.20
2023-01-21T19:51:21.993Z,1.20
2023-01-21T19:53:50.444Z,1.20
2023-01-21T19:56:24.579Z,1.20
2023-01-21T19:58:53.347Z,1.10
2023-01-21T20:01:21.644Z,1.20
2023-01-21T20:03:59.732Z,1.50
2023-01-21T20:06:38.069Z,1.30
2023-01-21T20:09:06.671Z,1.20
2023-01-21T20:11:35.334Z,1.20
2023-01-21T20:14:03.485Z,1.30
2023-01-21T20:16:32.692Z,1.10
2023-01-21T20:19:02.185Z,1.20
2023-01-21T20:21:31.971Z,1.20
2023-01-21T20:24:00.521Z,1.20
2023-01-21T20:26:29.532Z,1.20
2023-01-21T20:29:00.742Z,1.20
2023-01-21T20:31:30.103Z,1.30
2023-01-21T20:33:58.397Z,1.20
2023-01-21T20:36:27.793Z,1.20
2023-01-21T20:38:57.695Z,1.20
2023-01-21T20:41:26.101Z,1.30
2023-01-21T20:43:54.372Z,1.20
2023-01-21T20:46:27.931Z,1.30
2023-01-21T20:48:57.936Z,1.20
2023-01-21T20:51:27.430Z,1.10
2023-01-21T20:53:57.126Z,1.10
2023-01-21T20:56:28.897Z,1.20
2023-01-21T20:58:57.335Z,1.20
2023-01-21T21:01:27.935Z,1.30
2023-01-21T21:03:56.157Z,1.20
2023-01-21T21:06:28.571Z,1.10
2023-01-21T21:08:58.276Z,1.20
2023-01-21T21:11:26.742Z,1.20
2023-01-21T21:13:55.953Z,1.30
2023-01-21T21:16:27.729Z,1.20
2023-01-21T21:18:56.747Z,1.30
2023-01-21T21:21:25.545Z,1.20
2023-01-21T21:23:53.981Z,1.20
2023-01-21T21:26:26.104Z,1.20
2023-01-21T21:28:58.473Z,1.20
2023-01-21T21:31:31.764Z,1.20
2023-01-21T21:34:00.039Z,1.10
2023-01-21T21:36:28.310Z,1.10
2023-01-21T21:38:56.528Z,1.10
2023-01-21T21:41:44.848Z,1.20
2023-01-21T21:44:14.402Z,1.20
2023-01-21T21:47:00.603Z,1.20
2023-01-21T21:49:30.202Z,1.10
2023-01-21T21:52:00.087Z,1.20
2023-01-21T21:54:28.455Z,1.20
2023-01-21T21:56:58.646Z,1.10
2023-01-21T21:59:26.960Z,1.10
2023-01-21T22:01:55.327Z,1.20
2023-01-21T22:04:23.711Z,1.10
2023-01-21T22:06:52.013Z,1.20
2023-01-21T22:09:22.850Z,1.10
2023-01-21T22:11:51.201Z,1.20
2023-01-21T22:14:20.828Z,1.20
2023-01-21T22:16:51.908Z,1.10
2023-01-21T22:19:20.361Z,1.10
2023-01-21T22:21:48.514Z,1.20
2023-01-21T22:24:16.987Z,1.30
2023-01-21T22:26:45.134Z,1.20
2023-01-21T22:29:13.579Z,1.10
2023-01-21T22:31:43.430Z,1.00
2023-01-21T22:34:13.547Z,1.10
2023-01-21T22:36:44.170Z,1.30
2023-01-21T22:39:13.656Z,1.20
2023-01-21T22:41:41.813Z,1.30
2023-01-21T22:44:09.996Z,1.20
2023-01-21T22:46:38.343Z,1.10
2023-01-21T22:49:07.881Z,1.10
2023-01-21T22:51:36.114Z,1.10
2023-01-21T22:54:04.758Z,1.10
2023-01-21T22:56:50.413Z,1.10
2023-01-21T22:59:20.302Z,1.10
2023-01-21T23:01:50.928Z,1.20
2023-01-21T23:04:20.601Z,1.20
2023-01-21T23:06:51.086Z,1.20
2023-01-21T23:09:19.305Z,1.20
2023-01-21T23:11:47.524Z,1.20
2023-01-21T23:14:17.123Z,1.10
2023-01-21T23:16:45.477Z,1.10
2023-01-21T23:19:14.506Z,1.10
2023-01-21T23:21:44.116Z,1.20
2023-01-21T23:24:12.219Z,1.20
2023-01-21T23:26:40.410Z,1.20
2023-01-21T23:29:08.537Z,1.20
2023-01-21T23:31:36.993Z,1.30
2023-01-21T23:34:05.276Z,1.20
2023-01-21T23:36:33.383Z,1.20
2023-01-21T23:39:03.289Z,1.10
2023-01-21T23:41:31.627Z,1.20
2023-01-21T23:44:00.833Z,1.30
2023-01-21T23:46:29.127Z,1.30
2023-01-21T23:48:57.736Z,1.30
2023-01-21T23:51:25.954Z,1.20
2023-01-21T23:53:54.108Z,1.30
2023-01-21T23:56:26.368Z,1.20
2023-01-21T23:58:54.628Z,1.20
